createdAt,value
2023-03-03T00:00:58.705Z,17.95
2023-03-03T00:03:27.489Z,16.08
2023-03-03T00:05:54.973Z,15.68
2023-03-03T00:08:22.916Z,16.65
2023-03-03T00:10:50.502Z,16.23
2023-03-03T00:13:25.554Z,17.48
2023-03-03T00:15:53.554Z,17.60
2023-03-03T00:18:35.997Z,18.13
2023-03-03T00:21:15.831Z,16.77
2023-03-03T00:23:45.341Z,14.07
2023-03-03T00:26:22.757Z,15.65
2023-03-03T00:28:53.218Z,15.15
2023-03-03T00:31:35.072Z,15.40
2023-03-03T00:34:26.216Z,13.63
2023-03-03T00:36:58.421Z,14.43
2023-03-03T00:39:37.418Z,14.90
2023-03-03T00:42:15.482Z,16.98
2023-03-03T00:44:57.321Z,16.42
2023-03-03T00:47:31.636Z,14.63
2023-03-03T00:50:07.409Z,14.95
2023-03-03T00:52:48.761Z,14.88
2023-03-03T00:55:15.512Z,15.07
2023-03-03T00:57:42.274Z,16.50
2023-03-03T01:00:10.255Z,14.55
2023-03-03T01:02:37.012Z,16.85
2023-03-03T01:05:03.963Z,14.73
2023-03-03T01:07:30.699Z,16.00
2023-03-03T01:09:57.459Z,14.23
2023-03-03T01:12:24.619Z,15.48
2023-03-03T01:14:53.190Z,14.85
2023-03-03T01:17:20.035Z,13.88
2023-03-03T01:19:46.772Z,16.83
2023-03-03T01:22:13.507Z,14.93
2023-03-03T01:24:40.291Z,16.00
2023-03-03T01:27:07.012Z,18.17
2023-03-03T01:29:33.774Z,16.73
2023-03-03T01:32:00.525Z,14.70
2023-03-03T01:34:27.284Z,14.63
2023-03-03T01:36:54.017Z,15.68
2023-03-03T01:39:20.804Z,16.65
2023-03-03T01:41:47.525Z,17.20
2023-03-03T01:44:15.852Z,19.33
2023-03-03T01:46:55.277Z,17.30
2023-03-03T01:49:29.506Z,16.95
2023-03-03T01:52:01.457Z,18.48
2023-03-03T01:54:35.776Z,14.60
2023-03-03T01:57:11.371Z,16.38
2023-03-03T01:59:45.397Z,15.75
2023-03-03T02:02:12.489Z,15.73
2023-03-03T02:04:39.760Z,15.75
2023-03-03T02:07:11.249Z,15.75
2023-03-03T02:09:59.257Z,18.17
2023-03-03T02:12:38.509Z,18.42
2023-03-03T02:15:18.916Z,16.30
2023-03-03T02:17:47.323Z,16.45
2023-03-03T02:20:49.509Z,13.00
2023-03-03T02:23:51.471Z,13.80
2023-03-03T02:26:41.689Z,14.50
2023-03-03T02:29:10.040Z,16.65
2023-03-03T02:31:38.673Z,15.85
2023-03-03T02:34:05.950Z,14.50
2023-03-03T02:36:37.200Z,15.43
2023-03-03T02:39:26.883Z,15.68
2023-03-03T02:42:06.266Z,12.32
2023-03-03T02:44:33.770Z,16.50
2023-03-03T02:47:01.285Z,15.40
2023-03-03T02:49:32.343Z,14.63
2023-03-03T02:52:00.557Z,16.30
2023-03-03T02:54:31.005Z,14.88
2023-03-03T02:56:59.542Z,12.43
2023-03-03T02:59:26.334Z,13.73
2023-03-03T03:01:53.662Z,14.65
2023-03-03T03:04:24.464Z,12.82
2023-03-03T03:06:53.063Z,12.27
2023-03-03T03:09:22.302Z,13.45
2023-03-03T03:11:49.296Z,15.35
2023-03-03T03:14:16.146Z,12.80
2023-03-03T03:16:43.036Z,10.30
2023-03-03T03:19:09.996Z,12.98
2023-03-03T03:21:37.002Z,12.65
2023-03-03T03:24:03.825Z,13.05
2023-03-03T03:26:30.665Z,13.57
2023-03-03T03:28:57.479Z,13.80
2023-03-03T03:31:25.918Z,14.07
2023-03-03T03:33:53.124Z,14.57
2023-03-03T03:36:20.107Z,10.93
2023-03-03T03:38:46.836Z,12.40
2023-03-03T03:41:14.007Z,12.45
2023-03-03T03:43:41.056Z,15.57
2023-03-03T03:46:08.635Z,13.40
2023-03-03T03:48:35.949Z,14.23
2023-03-03T03:51:03.490Z,15.70
2023-03-03T03:53:30.917Z,13.88
2023-03-03T03:55:57.951Z,14.45
2023-03-03T03:58:24.751Z,14.05
2023-03-03T04:00:51.550Z,11.95
2023-03-03T04:03:18.574Z,14.73
2023-03-03T04:05:45.432Z,13.20
2023-03-03T04:08:12.686Z,12.77
2023-03-03T04:10:39.669Z,12.35
2023-03-03T04:13:06.458Z,13.20
2023-03-03T04:15:33.324Z,15.32
2023-03-03T04:18:00.133Z,16.13
2023-03-03T04:20:26.904Z,13.30
2023-03-03T04:22:53.773Z,14.00
2023-03-03T04:25:20.580Z,14.18
2023-03-03T04:27:47.347Z,13.77
2023-03-03T04:30:16.237Z,13.32
2023-03-03T04:32:43.101Z,14.38
2023-03-03T04:35:11.291Z,14.57
2023-03-03T04:37:39.109Z,15.27
2023-03-03T04:40:08.833Z,13.57
2023-03-03T04:42:36.344Z,16.17
2023-03-03T04:45:04.761Z,13.10
2023-03-03T04:47:32.697Z,13.45
2023-03-03T04:50:00.932Z,13.77
2023-03-03T04:52:28.322Z,14.82
2023-03-03T04:54:55.100Z,21.52
2023-03-03T04:57:21.843Z,24.10
2023-03-03T04:59:48.973Z,20.05
2023-03-03T05:02:15.807Z,18.27
2023-03-03T05:04:42.580Z,26.27
2023-03-03T05:07:09.879Z,24.25
2023-03-03T05:09:37.351Z,19.17
2023-03-03T05:12:04.556Z,18.55
2023-03-03T05:14:31.646Z,19.92
2023-03-03T05:16:58.457Z,16.52
2023-03-03T05:19:25.572Z,16.88
2023-03-03T05:21:52.311Z,12.77
2023-03-03T05:24:19.064Z,14.18
2023-03-03T05:26:45.837Z,14.88
2023-03-03T05:29:12.568Z,15.98
2023-03-03T05:31:39.521Z,15.82
2023-03-03T05:34:06.284Z,14.98
2023-03-03T05:36:33.007Z,12.65
2023-03-03T05:38:59.745Z,16.75
2023-03-03T05:41:26.585Z,14.57
2023-03-03T05:43:53.356Z,12.25
2023-03-03T05:46:20.193Z,15.68
2023-03-03T05:48:47.001Z,13.23
2023-03-03T05:51:14.213Z,14.10
2023-03-03T05:53:41.299Z,16.30
2023-03-03T05:56:08.332Z,15.43
2023-03-03T05:58:35.908Z,16.27
2023-03-03T06:01:02.812Z,16.80
2023-03-03T06:03:29.564Z,15.27
2023-03-03T06:05:56.341Z,16.33
2023-03-03T06:08:23.253Z,19.48
2023-03-03T06:10:50.030Z,16.77
2023-03-03T06:13:16.804Z,16.30
2023-03-03T06:15:44.267Z,14.88
2023-03-03T06:18:11.281Z,17.52
2023-03-03T06:20:38.864Z,15.82
2023-03-03T06:23:05.946Z,12.63
2023-03-03T06:25:35.776Z,14.32
2023-03-03T06:28:03.890Z,13.45
2023-03-03T06:30:30.862Z,14.75
2023-03-03T06:32:57.667Z,14.02
2023-03-03T06:35:24.567Z,18.38
2023-03-03T06:37:51.925Z,14.93
2023-03-03T06:40:18.848Z,14.35
2023-03-03T06:42:45.939Z,14.32
2023-03-03T06:45:13.459Z,14.18
2023-03-03T06:47:40.541Z,15.32
2023-03-03T06:50:10.192Z,15.18
2023-03-03T06:52:36.925Z,13.32
2023-03-03T06:55:14.093Z,15.60
2023-03-03T06:57:41.393Z,16.55
2023-03-03T07:00:27.945Z,18.67
2023-03-03T07:03:04.949Z,18.17
2023-03-03T07:05:33.211Z,22.23
2023-03-03T07:08:00.103Z,20.52
2023-03-03T07:10:31.137Z,19.35
2023-03-03T07:13:15.679Z,19.02
2023-03-03T07:15:42.424Z,18.25
2023-03-03T07:18:40.902Z,21.10
2023-03-03T07:21:16.872Z,22.70
2023-03-03T07:23:45.609Z,21.48
2023-03-03T07:26:18.382Z,20.70
2023-03-03T07:31:37.191Z,20.42
2023-03-03T07:34:22.290Z,19.52
2023-03-03T07:36:51.601Z,22.48
2023-03-03T07:39:40.532Z,20.48
2023-03-03T07:42:32.370Z,22.23
2023-03-03T07:45:01.099Z,18.67
2023-03-03T07:47:36.459Z,17.95
2023-03-03T07:50:18.935Z,16.92
2023-03-03T07:53:01.603Z,14.73
2023-03-03T07:55:40.009Z,14.85
2023-03-03T07:58:23.853Z,17.25
2023-03-03T08:01:29.601Z,19.65
2023-03-03T08:03:57.726Z,19.35
2023-03-03T08:06:45.913Z,16.75
2023-03-03T08:09:12.577Z,17.67
2023-03-03T08:11:55.774Z,14.52
2023-03-03T08:16:58.758Z,14.75
2023-03-03T08:19:28.374Z,16.30
2023-03-03T08:22:18.352Z,17.00
2023-03-03T08:24:45.185Z,14.50
2023-03-03T08:27:11.965Z,14.00
2023-03-03T08:29:39.180Z,16.75
2023-03-03T08:32:06.248Z,15.57
2023-03-03T08:34:33.060Z,14.60
2023-03-03T08:36:59.914Z,17.00
2023-03-03T08:39:26.706Z,20.10
2023-03-03T08:41:53.456Z,18.13
2023-03-03T08:44:20.811Z,19.58
2023-03-03T08:46:47.724Z,19.30
2023-03-03T08:49:14.711Z,19.52
2023-03-03T08:51:42.096Z,16.90
2023-03-03T08:54:09.245Z,18.85
2023-03-03T08:56:36.471Z,17.95
2023-03-03T08:59:03.683Z,18.33
2023-03-03T09:01:32.694Z,18.48
2023-03-03T09:03:59.760Z,17.65
2023-03-03T09:06:26.631Z,19.80
2023-03-03T09:08:55.012Z,18.73
2023-03-03T09:11:28.038Z,18.17
2023-03-03T09:16:38.988Z,18.20
2023-03-03T09:19:32.528Z,19.08
2023-03-03T09:22:24.508Z,19.73
2023-03-03T09:24:56.201Z,20.15
2023-03-03T09:27:30.042Z,18.23
2023-03-03T09:30:03.563Z,19.80
2023-03-03T09:32:43.282Z,20.67
2023-03-03T09:35:39.063Z,19.17
2023-03-03T09:38:33.162Z,20.25
2023-03-03T09:41:21.454Z,20.42
2023-03-03T09:44:07.042Z,19.95
2023-03-03T09:47:03.663Z,19.02
2023-03-03T09:50:15.596Z,18.63
2023-03-03T09:53:15.424Z,19.50
2023-03-03T09:56:01.914Z,20.02
2023-03-03T09:58:46.353Z,17.83
2023-03-03T10:01:38.548Z,21.42
2023-03-03T10:04:44.257Z,16.35
2023-03-03T10:07:40.425Z,20.85
2023-03-03T10:10:34.162Z,19.33
2023-03-03T10:13:52.157Z,19.33
2023-03-03T10:16:49.887Z,21.85
2023-03-03T10:19:39.584Z,18.35
2023-03-03T10:22:20.818Z,19.92
2023-03-03T10:25:28.088Z,20.85
2023-03-03T10:28:34.431Z,18.63
2023-03-03T10:31:14.901Z,20.20
2023-03-03T10:34:00.654Z,19.40
2023-03-03T10:36:43.930Z,21.17
2023-03-03T10:39:34.734Z,21.70
2023-03-03T10:42:24.749Z,19.90
2023-03-03T10:45:13.543Z,18.23
2023-03-03T10:48:14.201Z,18.70
2023-03-03T10:51:19.340Z,18.33
2023-03-03T10:54:44.106Z,20.92
2023-03-03T10:57:27.979Z,19.52
2023-03-03T11:00:26.598Z,18.77
2023-03-03T11:03:33.890Z,17.92
2023-03-03T11:06:20.773Z,19.92
2023-03-03T11:09:17.240Z,21.10
2023-03-03T11:11:43.991Z,19.35
2023-03-03T11:14:50.529Z,17.83
2023-03-03T11:17:29.932Z,19.33
2023-03-03T11:20:33.316Z,19.05
2023-03-03T11:23:44.472Z,19.80
2023-03-03T11:26:54.598Z,17.52
2023-03-03T11:30:01.076Z,19.90
2023-03-03T11:32:43.148Z,17.52
2023-03-03T11:35:37.085Z,18.65
2023-03-03T11:38:36.610Z,17.15
2023-03-03T11:41:20.754Z,20.38
2023-03-03T11:44:00.263Z,15.85
2023-03-03T11:46:37.149Z,16.67
2023-03-03T11:49:12.018Z,18.45
2023-03-03T11:51:50.617Z,18.15
2023-03-03T11:54:34.818Z,18.55
2023-03-03T11:57:21.065Z,18.67
2023-03-03T12:00:28.951Z,15.73
2023-03-03T12:03:28.042Z,21.30
2023-03-03T12:06:12.485Z,17.30
2023-03-03T12:09:01.111Z,18.90
2023-03-03T12:11:38.002Z,17.65
2023-03-03T12:14:52.041Z,18.20
2023-03-03T12:17:46.211Z,17.17
2023-03-03T12:20:52.155Z,17.15
2023-03-03T12:23:43.051Z,18.63
2023-03-03T12:26:34.501Z,18.05
2023-03-03T12:29:53.591Z,19.83
2023-03-03T12:32:41.751Z,18.30
2023-03-03T12:35:18.224Z,18.80
2023-03-03T12:37:55.029Z,18.85
2023-03-03T12:40:36.242Z,17.48
2023-03-03T12:43:26.539Z,17.52
2023-03-03T12:46:07.973Z,17.65
2023-03-03T12:48:52.438Z,16.60
2023-03-03T12:51:37.506Z,16.58
2023-03-03T12:54:38.118Z,15.10
2023-03-03T12:57:31.338Z,18.10
2023-03-03T13:00:28.531Z,15.95
2023-03-03T13:03:17.943Z,16.60
2023-03-03T13:06:16.283Z,16.67
2023-03-03T13:09:07.293Z,17.90
2023-03-03T13:12:08.203Z,20.35
2023-03-03T13:15:01.558Z,16.77
2023-03-03T13:17:35.712Z,16.88
2023-03-03T13:20:40.851Z,17.52
2023-03-03T13:23:17.822Z,17.45
2023-03-03T13:25:49.752Z,16.35
2023-03-03T13:28:28.845Z,17.75
2023-03-03T13:31:22.095Z,15.48
2023-03-03T13:34:02.047Z,15.35
2023-03-03T13:36:54.217Z,15.35
2023-03-03T13:39:27.458Z,16.70
2023-03-03T13:42:06.917Z,15.18
2023-03-03T13:44:43.293Z,17.15
2023-03-03T13:47:30.860Z,16.90
2023-03-03T13:50:36.650Z,16.38
2023-03-03T13:53:12.044Z,16.88
2023-03-03T13:56:50.354Z,17.30
2023-03-03T13:59:35.966Z,18.23
2023-03-03T14:02:26.292Z,16.52
2023-03-03T14:05:12.670Z,16.50
2023-03-03T14:08:07.751Z,14.27
2023-03-03T14:10:52.862Z,15.15
2023-03-03T14:13:47.213Z,15.27
2023-03-03T14:16:34.835Z,14.65
2023-03-03T14:19:30.873Z,16.25
2023-03-03T14:21:57.980Z,14.82
2023-03-03T14:24:26.588Z,16.13
2023-03-03T14:26:59.036Z,15.98
2023-03-03T14:29:28.836Z,17.48
2023-03-03T14:31:58.391Z,16.55
2023-03-03T14:34:41.216Z,14.50
2023-03-03T14:37:43.603Z,14.15
2023-03-03T14:40:20.300Z,14.70
2023-03-03T14:42:52.961Z,14.57
2023-03-03T14:45:41.895Z,15.02
2023-03-03T14:48:24.992Z,15.82
2023-03-03T14:51:04.763Z,16.50
2023-03-03T14:53:38.503Z,17.48
2023-03-03T14:56:49.467Z,16.92
2023-03-03T14:59:20.125Z,15.30
2023-03-03T15:01:47.891Z,15.60
2023-03-03T15:04:23.968Z,15.57
2023-03-03T15:06:53.980Z,15.82
2023-03-03T15:09:43.385Z,14.60
2023-03-03T15:12:26.238Z,16.23
2023-03-03T15:15:05.543Z,17.17
2023-03-03T15:17:40.748Z,17.50
2023-03-03T15:20:22.820Z,16.05
2023-03-03T15:23:16.344Z,15.65
2023-03-03T15:26:09.917Z,14.55
2023-03-03T15:29:02.706Z,17.20
2023-03-03T15:31:37.119Z,17.25
2023-03-03T15:34:34.810Z,16.27
2023-03-03T15:37:39.418Z,15.60
2023-03-03T15:40:21.323Z,14.55
2023-03-03T15:43:12.131Z,15.88
2023-03-03T15:45:58.073Z,16.58
2023-03-03T15:49:12.317Z,16.70
2023-03-03T15:52:03.155Z,16.77
2023-03-03T15:54:57.202Z,15.40
2023-03-03T15:57:46.773Z,16.13
2023-03-03T16:00:38.843Z,15.88
2023-03-03T16:03:15.419Z,16.85
2023-03-03T16:05:54.608Z,17.48
2023-03-03T16:09:07.044Z,16.55
2023-03-03T16:11:50.370Z,18.00
2023-03-03T16:14:33.446Z,19.05
2023-03-03T16:17:24.369Z,16.58
2023-03-03T16:20:03.637Z,18.10
2023-03-03T16:22:50.162Z,18.17
2023-03-03T16:25:47.150Z,17.25
2023-03-03T16:28:16.748Z,17.55
2023-03-03T16:31:41.329Z,20.40
2023-03-03T16:34:36.973Z,19.23
2023-03-03T16:37:44.329Z,19.35
2023-03-03T16:40:36.042Z,19.10
2023-03-03T16:43:21.807Z,17.52
2023-03-03T16:45:48.995Z,18.70
2023-03-03T16:48:32.915Z,17.77
2023-03-03T16:51:14.520Z,19.83
2023-03-03T16:54:03.019Z,18.15
2023-03-03T16:57:06.412Z,17.70
2023-03-03T16:59:51.242Z,19.95
2023-03-03T17:03:04.346Z,17.90
2023-03-03T17:05:45.030Z,18.98
2023-03-03T17:08:20.654Z,18.40
2023-03-03T17:11:35.104Z,18.48
2023-03-03T17:14:20.224Z,20.73
2023-03-03T17:17:08.149Z,19.60
2023-03-03T17:19:37.630Z,17.80
2023-03-03T17:22:19.108Z,17.42
2023-03-03T17:25:13.169Z,18.83
2023-03-03T17:28:13.533Z,16.85
2023-03-03T17:30:55.181Z,17.83
2023-03-03T17:33:37.007Z,17.90
2023-03-03T17:36:24.683Z,15.73
2023-03-03T17:39:31.508Z,17.20
2023-03-03T17:42:19.136Z,17.75
2023-03-03T17:45:00.472Z,15.48
2023-03-03T17:47:57.283Z,17.58
2023-03-03T17:50:54.501Z,13.77
2023-03-03T17:53:56.361Z,15.30
2023-03-03T17:56:57.950Z,15.38
2023-03-03T17:59:59.035Z,16.75
2023-03-03T18:02:32.350Z,16.90
2023-03-03T18:05:45.722Z,17.23
2023-03-03T18:08:24.207Z,17.40
2023-03-03T18:11:30.232Z,15.10
2023-03-03T18:14:26.300Z,15.93
2023-03-03T18:17:04.984Z,14.15
2023-03-03T18:20:00.350Z,14.43
2023-03-03T18:22:34.843Z,14.70
2023-03-03T18:25:20.271Z,16.10
2023-03-03T18:28:08.405Z,14.90
2023-03-03T18:30:58.651Z,14.05
2023-03-03T18:34:03.876Z,15.15
2023-03-03T18:36:32.009Z,14.30
2023-03-03T18:39:03.083Z,16.20
2023-03-03T18:42:04.439Z,16.65
2023-03-03T18:44:32.095Z,16.38
2023-03-03T18:47:01.581Z,16.65
2023-03-03T18:49:58.046Z,14.25
2023-03-03T18:52:31.396Z,14.43
2023-03-03T18:55:10.152Z,14.13
2023-03-03T18:57:38.594Z,13.75
2023-03-03T19:00:25.919Z,15.18
2023-03-03T19:02:59.195Z,16.13
2023-03-03T19:05:30.928Z,14.27
2023-03-03T19:08:03.130Z,13.68
2023-03-03T19:10:52.461Z,14.40
2023-03-03T19:13:34.341Z,12.98
2023-03-03T19:16:06.451Z,17.17
2023-03-03T19:18:41.995Z,17.63
2023-03-03T19:21:11.586Z,15.80
2023-03-03T19:24:00.651Z,21.35
2023-03-03T19:26:30.492Z,23.27
2023-03-03T19:29:46.295Z,18.08
2023-03-03T19:32:44.273Z,14.38
2023-03-03T19:35:46.187Z,16.05
2023-03-03T19:38:31.310Z,15.73
2023-03-03T19:41:22.973Z,18.65
2023-03-03T19:44:27.896Z,17.05
2023-03-03T19:47:11.985Z,15.70
2023-03-03T19:50:06.338Z,17.40
2023-03-03T19:52:42.122Z,14.70
2023-03-03T19:55:30.741Z,17.95
2023-03-03T19:58:25.926Z,18.23
2023-03-03T20:01:32.653Z,15.13
2023-03-03T20:04:32.479Z,14.73
2023-03-03T20:07:29.183Z,15.15
2023-03-03T20:10:12.916Z,16.27
2023-03-03T20:12:47.783Z,15.45
2023-03-03T20:15:28.730Z,16.02
2023-03-03T20:18:01.442Z,16.05
2023-03-03T20:20:55.542Z,15.43
2023-03-03T20:24:18.568Z,15.00
2023-03-03T20:27:10.726Z,14.82
2023-03-03T20:29:59.367Z,16.48
2023-03-03T20:33:11.672Z,13.95
2023-03-03T20:36:10.542Z,16.05
2023-03-03T20:39:06.425Z,15.43
2023-03-03T20:42:14.019Z,15.07
2023-03-03T20:44:53.565Z,14.02
2023-03-03T20:47:46.080Z,15.02
2023-03-03T20:50:35.433Z,15.63
2023-03-03T20:53:29.385Z,17.70
2023-03-03T20:56:17.878Z,16.08
2023-03-03T20:59:13.471Z,14.68
2023-03-03T21:02:00.719Z,13.18
2023-03-03T21:04:37.075Z,12.77
2023-03-03T21:07:05.418Z,13.57
2023-03-03T21:09:39.836Z,14.85
2023-03-03T21:12:30.055Z,14.57
2023-03-03T21:15:05.733Z,14.32
2023-03-03T21:17:32.527Z,12.73
2023-03-03T21:20:19.428Z,18.35
2023-03-03T21:22:46.586Z,15.25
2023-03-03T21:25:48.201Z,14.60
2023-03-03T21:28:32.227Z,15.60
2023-03-03T21:31:15.600Z,14.98
2023-03-03T21:33:50.668Z,16.67
2023-03-03T21:36:32.753Z,17.38
2023-03-03T21:39:02.228Z,13.90
2023-03-03T21:41:53.137Z,17.00
2023-03-03T21:44:44.781Z,15.00
2023-03-03T21:47:15.170Z,17.98
2023-03-03T21:49:43.693Z,16.33
2023-03-03T21:52:12.223Z,18.38
2023-03-03T21:54:39.708Z,14.60
2023-03-03T21:57:06.867Z,16.00
2023-03-03T21:59:33.634Z,13.50
2023-03-03T22:02:00.545Z,14.15
2023-03-03T22:04:27.353Z,15.45
2023-03-03T22:06:54.197Z,16.17
2023-03-03T22:09:21.046Z,15.10
2023-03-03T22:11:48.276Z,15.65
2023-03-03T22:14:15.340Z,14.10
2023-03-03T22:16:42.335Z,14.38
2023-03-03T22:19:09.731Z,15.25
2023-03-03T22:21:38.446Z,15.73
2023-03-03T22:24:06.815Z,14.73
2023-03-03T22:26:33.821Z,16.08
2023-03-03T22:29:00.848Z,14.80
2023-03-03T22:31:27.889Z,14.18
2023-03-03T22:33:54.673Z,17.80
2023-03-03T22:36:21.637Z,13.02
2023-03-03T22:38:49.002Z,15.27
2023-03-03T22:41:16.298Z,15.45
2023-03-03T22:43:43.282Z,13.10
2023-03-03T22:46:10.623Z,14.32
2023-03-03T22:48:38.658Z,15.57
2023-03-03T22:51:06.144Z,14.15
2023-03-03T22:53:33.384Z,13.18
2023-03-03T22:56:00.303Z,14.02
2023-03-03T22:58:27.059Z,12.52
2023-03-03T23:00:54.527Z,15.85
2023-03-03T23:03:21.892Z,13.40
2023-03-03T23:05:51.678Z,13.00
2023-03-03T23:08:20.493Z,14.45
2023-03-03T23:10:48.561Z,12.15
2023-03-03T23:13:16.174Z,14.80
2023-03-03T23:15:43.332Z,14.98
2023-03-03T23:18:10.498Z,14.43
2023-03-03T23:20:37.811Z,14.68
2023-03-03T23:23:05.057Z,14.95
2023-03-03T23:25:31.884Z,11.88
2023-03-03T23:27:59.063Z,13.05
2023-03-03T23:30:26.296Z,14.23
2023-03-03T23:32:53.905Z,14.43
2023-03-03T23:35:20.725Z,13.40
2023-03-03T23:37:47.814Z,13.88
2023-03-03T23:40:16.412Z,14.93
2023-03-03T23:42:43.928Z,13.35
2023-03-03T23:45:12.966Z,16.02
2023-03-03T23:47:39.941Z,14.45
2023-03-03T23:50:07.589Z,14.48
2023-03-03T23:52:34.388Z,15.13
2023-03-03T23:55:02.061Z,14.85
2023-03-03T23:57:29.048Z,14.18
2023-03-03T23:59:55.865Z,12.63
